Time;durP1;ratioP1;P1;durP2;ratioP2;P2;SDS_P1;SDS_P2;PMS_P1;PMS_P2;Temp;Humidity;BMP_temperature;BMP_pressure;BME280_temperature;BME280_humidity;BME280_pressure;Samples;Min_cycle;Max_cycle;Signal;HPM_P1;HPM_P2
2022/07/25 00:00:29;;;;;;;9.50;5.75;;;21.40;99.90;;;;;;4955748;28;20035;-68
2022/07/25 00:02:55;;;;;;;7.80;6.13;;;21.20;99.90;;;;;;4973480;28;20054;-68
2022/07/25 00:05:21;;;;;;;10.07;6.55;;;21.10;99.90;;;;;;4973801;28;20042;-67
2022/07/25 00:07:47;;;;;;;7.10;6.40;;;21.00;99.90;;;;;;4949643;28;20634;-68
2022/07/25 00:10:12;;;;;;;6.25;5.65;;;20.90;99.90;;;;;;4939222;28;20058;-67
2022/07/25 00:12:38;;;;;;;6.70;6.00;;;20.80;99.90;;;;;;4973904;28;20041;-67
2022/07/25 00:15:04;;;;;;;6.57;5.72;;;20.70;99.90;;;;;;4964314;28;20122;-67
2022/07/25 00:17:30;;;;;;;7.00;6.20;;;20.60;99.90;;;;;;4965177;28;20126;-66
2022/07/25 00:19:56;;;;;;;10.40;7.45;;;20.50;99.90;;;;;;4973433;28;20139;-67
2022/07/25 00:22:21;;;;;;;9.13;6.88;;;20.50;99.90;;;;;;4973543;28;20049;-67
2022/07/25 00:24:47;;;;;;;9.75;7.13;;;20.60;99.90;;;;;;4945351;28;20047;-66
2022/07/25 00:27:13;;;;;;;10.35;9.25;;;20.50;99.90;;;;;;4967924;28;20570;-67
2022/07/25 00:29:38;;;;;;;10.80;9.65;;;20.60;99.90;;;;;;4973498;28;20495;-66
2022/07/25 00:32:04;;;;;;;13.27;10.40;;;20.70;99.90;;;;;;4950877;28;20105;-67
2022/07/25 00:34:30;;;;;;;16.10;10.80;;;20.80;99.90;;;;;;4948199;28;20054;-66
2022/07/25 00:36:55;;;;;;;15.82;11.43;;;21.00;99.90;;;;;;4973186;28;20050;-67
2022/07/25 00:39:21;;;;;;;16.52;10.25;;;21.10;99.90;;;;;;4973421;28;20039;-67
2022/07/25 00:41:47;;;;;;;13.90;10.95;;;21.10;99.90;;;;;;4964742;28;20035;-66
2022/07/25 00:44:29;;;;;;;14.20;9.98;;;21.10;99.90;;;;;;4953778;28;20125;-66
2022/07/25 00:46:56;;;;;;;13.35;10.13;;;21.10;99.90;;;;;;4955961;28;20047;-67
2022/07/25 00:49:22;;;;;;;14.98;11.05;;;21.00;99.90;;;;;;4951211;28;20047;-66
2022/07/25 00:51:48;;;;;;;13.30;11.27;;;20.90;99.90;;;;;;4954966;28;20042;-66
2022/07/25 00:54:14;;;;;;;13.98;11.07;;;21.00;99.90;;;;;;4955584;28;20054;-68
2022/07/25 00:56:41;;;;;;;15.35;11.38;;;20.90;99.90;;;;;;4966155;28;20047;-68
2022/07/25 00:59:07;;;;;;;15.63;11.40;;;20.90;99.90;;;;;;4971826;28;20039;-67
2022/07/25 01:01:33;;;;;;;12.38;11.00;;;20.80;99.90;;;;;;4955104;28;20085;-68
2022/07/25 01:03:59;;;;;;;14.57;12.52;;;20.80;99.90;;;;;;4967703;28;20452;-67
2022/07/25 01:06:26;;;;;;;15.63;13.20;;;20.80;99.90;;;;;;4959662;28;20125;-67
2022/07/25 01:08:53;;;;;;;16.52;13.60;;;20.90;99.90;;;;;;4971866;28;20035;-67
2022/07/25 01:11:18;;;;;;;15.88;13.68;;;20.90;99.90;;;;;;4955045;28;20043;-68
2022/07/25 01:13:44;;;;;;;14.85;12.32;;;20.90;99.90;;;;;;4972463;28;20105;-68
2022/07/25 01:16:10;;;;;;;14.02;12.23;;;21.00;99.90;;;;;;4963785;28;20039;-68
2022/07/25 01:18:35;;;;;;;14.63;12.65;;;21.10;99.90;;;;;;4971427;28;20044;-68
2022/07/25 01:21:01;;;;;;;14.25;12.75;;;21.20;99.90;;;;;;4968530;28;20118;-66
2022/07/25 01:23:27;;;;;;;13.77;12.20;;;21.20;99.90;;;;;;4967916;28;20037;-67
2022/07/25 01:25:53;;;;;;;15.77;12.30;;;21.20;99.90;;;;;;4951089;28;20123;-66
2022/07/25 01:28:18;;;;;;;16.73;13.13;;;21.20;99.90;;;;;;4954840;28;20043;-67
2022/07/25 01:30:44;;;;;;;14.10;12.43;;;21.20;99.90;;;;;;4955061;28;20109;-66
2022/07/25 01:33:20;;;;;;;15.48;13.43;;;21.10;99.90;;;;;;4962732;28;20075;-66
2022/07/25 01:35:47;;;;;;;16.75;13.52;;;21.10;99.90;;;;;;4966546;28;20089;-67
2022/07/25 01:38:13;;;;;;;17.38;13.73;;;21.10;99.90;;;;;;4970772;28;20045;-68
2022/07/25 01:40:40;;;;;;;18.85;13.40;;;21.10;99.90;;;;;;4963872;28;20030;-67
2022/07/25 01:43:06;;;;;;;19.73;14.07;;;21.10;99.90;;;;;;4954601;28;20047;-67
2022/07/25 01:45:31;;;;;;;16.75;14.23;;;21.10;99.90;;;;;;4972305;28;20089;-66
2022/07/25 01:47:57;;;;;;;19.27;13.68;;;21.00;99.90;;;;;;4967003;28;20047;-66
2022/07/25 01:50:24;;;;;;;18.75;14.35;;;21.10;99.90;;;;;;4956628;28;20053;-67
2022/07/25 01:52:49;;;;;;;17.80;13.95;;;21.00;99.90;;;;;;4976845;28;20379;-67
2022/07/25 01:55:15;;;;;;;17.85;13.80;;;21.00;99.90;;;;;;4985619;28;20496;-67
2022/07/25 01:57:41;;;;;;;18.33;14.65;;;21.00;99.90;;;;;;4971462;28;20114;-67
2022/07/25 02:00:09;;;;;;;19.73;14.60;;;21.00;99.90;;;;;;4954832;28;20050;-67
2022/07/25 02:02:35;;;;;;;17.83;14.23;;;21.00;99.90;;;;;;4971717;28;20089;-66
2022/07/25 02:05:00;;;;;;;18.52;14.98;;;21.00;99.90;;;;;;4967624;28;20043;-66
2022/07/25 02:07:26;;;;;;;18.02;14.98;;;20.90;99.90;;;;;;4944956;28;20038;-67
2022/07/25 02:09:52;;;;;;;19.15;15.82;;;20.90;99.90;;;;;;4971467;28;20045;-66
2022/07/25 02:12:17;;;;;;;24.00;15.63;;;20.90;99.90;;;;;;4964064;28;20130;-67
2022/07/25 02:14:43;;;;;;;19.65;16.27;;;20.90;99.90;;;;;;4962226;28;20038;-67
2022/07/25 02:17:09;;;;;;;17.83;15.68;;;20.80;99.90;;;;;;4971556;28;20078;-67
2022/07/25 02:19:35;;;;;;;18.75;16.15;;;20.80;99.90;;;;;;4954454;28;20046;-68
2022/07/25 02:22:01;;;;;;;17.92;16.02;;;20.80;99.90;;;;;;4965967;28;20050;-67
2022/07/25 02:24:27;;;;;;;18.05;15.90;;;20.80;99.90;;;;;;4968521;28;20058;-67
2022/07/25 02:26:53;;;;;;;18.80;14.95;;;20.70;99.90;;;;;;4973438;28;20588;-67
2022/07/25 02:29:18;;;;;;;16.75;13.95;;;20.60;99.90;;;;;;4959049;28;20043;-67
2022/07/25 02:31:44;;;;;;;19.25;14.27;;;20.40;99.90;;;;;;4965127;28;20118;-67
2022/07/25 02:34:11;;;;;;;19.20;15.13;;;20.30;99.90;;;;;;4971226;28;20039;-67
2022/07/25 02:36:37;;;;;;;18.25;16.02;;;20.10;99.90;;;;;;4954447;28;20097;-67
2022/07/25 02:39:03;;;;;;;19.85;15.93;;;20.00;99.90;;;;;;4947468;29;20047;-67
2022/07/25 02:41:28;;;;;;;17.15;15.35;;;20.00;99.90;;;;;;4956598;28;20045;-67
2022/07/25 02:43:54;;;;;;;18.15;14.80;;;19.90;99.90;;;;;;4954089;28;20035;-67
2022/07/25 02:46:20;;;;;;;17.48;15.23;;;19.80;99.90;;;;;;4960830;28;20171;-67
2022/07/25 02:48:45;;;;;;;18.48;15.23;;;19.80;99.90;;;;;;4953743;28;20129;-67
2022/07/25 02:51:11;;;;;;;16.85;14.98;;;19.70;99.90;;;;;;4970976;28;20443;-68
2022/07/25 02:53:36;;;;;;;18.98;15.27;;;19.70;99.90;;;;;;4965534;28;20038;-67
2022/07/25 02:56:02;;;;;;;18.23;14.95;;;19.70;99.90;;;;;;4971058;28;20319;-67
2022/07/25 02:58:28;;;;;;;17.33;15.35;;;19.70;99.90;;;;;;4971320;28;20094;-67
2022/07/25 03:00:53;;;;;;;17.75;15.70;;;19.70;99.90;;;;;;4966061;28;20043;-68
2022/07/25 03:03:19;;;;;;;19.38;15.45;;;19.70;99.90;;;;;;4962752;28;20102;-67
2022/07/25 03:05:44;;;;;;;19.08;15.88;;;19.60;99.90;;;;;;4979832;28;20038;-67
2022/07/25 03:08:10;;;;;;;20.15;15.88;;;19.70;99.90;;;;;;4944078;28;20399;-67
2022/07/25 03:10:36;;;;;;;16.45;14.75;;;19.60;99.90;;;;;;4938746;29;20051;-67
2022/07/25 03:13:02;;;;;;;18.58;15.68;;;19.60;99.90;;;;;;4958697;28;20129;-67
2022/07/25 03:15:27;;;;;;;17.67;15.73;;;19.60;99.90;;;;;;4965959;28;20042;-67
2022/07/25 03:17:53;;;;;;;18.80;15.32;;;19.60;99.90;;;;;;4945100;28;20042;-67
2022/07/25 03:20:19;;;;;;;19.70;15.45;;;19.60;99.90;;;;;;4969624;28;20057;-67
2022/07/25 03:22:44;;;;;;;18.42;15.90;;;19.60;99.90;;;;;;4976769;28;20027;-67
2022/07/25 03:25:10;;;;;;;18.15;15.05;;;19.60;99.90;;;;;;4954801;28;20498;-67
2022/07/25 03:27:36;;;;;;;18.88;14.73;;;19.60;99.90;;;;;;4971775;28;20039;-67
2022/07/25 03:30:02;;;;;;;18.55;15.13;;;19.60;99.90;;;;;;4952227;28;20042;-67
2022/07/25 03:32:27;;;;;;;20.27;15.43;;;19.60;99.90;;;;;;4973996;28;20089;-67
2022/07/25 03:34:53;;;;;;;22.30;15.90;;;19.50;99.90;;;;;;4956746;28;20071;-67
2022/07/25 03:37:19;;;;;;;19.08;15.50;;;19.50;99.90;;;;;;4962452;28;20073;-68
2022/07/25 03:39:44;;;;;;;19.35;16.95;;;19.50;99.90;;;;;;4968496;28;20039;-67
2022/07/25 03:42:10;;;;;;;20.02;16.40;;;19.50;99.90;;;;;;4970910;28;20057;-67
2022/07/25 03:44:36;;;;;;;21.60;16.23;;;19.60;99.90;;;;;;4957187;28;20042;-67
2022/07/25 03:47:03;;;;;;;21.25;16.35;;;19.60;99.90;;;;;;4968231;28;20035;-67
2022/07/25 03:49:28;;;;;;;19.83;16.27;;;19.60;99.90;;;;;;4966229;28;20043;-67
2022/07/25 03:51:54;;;;;;;18.80;15.55;;;19.50;99.90;;;;;;4952776;28;20055;-67
2022/07/25 03:54:20;;;;;;;17.25;14.95;;;19.60;99.90;;;;;;4954352;28;20047;-67
2022/07/25 03:56:47;;;;;;;19.50;15.63;;;19.60;99.90;;;;;;4965224;28;20127;-67
2022/07/25 03:59:16;;;;;;;19.98;15.48;;;19.50;99.90;;;;;;4971978;28;20109;-67
2022/07/25 04:01:43;;;;;;;16.85;14.25;;;19.40;99.90;;;;;;4956734;28;20038;-67
2022/07/25 04:04:10;;;;;;;15.50;13.80;;;19.40;99.90;;;;;;4965727;28;20316;-67
2022/07/25 04:06:37;;;;;;;19.75;14.68;;;19.40;99.90;;;;;;4968761;28;21312;-67
2022/07/25 04:09:03;;;;;;;19.48;15.02;;;19.40;99.90;;;;;;4961819;28;20031;-68
2022/07/25 04:11:29;;;;;;;17.60;14.68;;;19.40;99.90;;;;;;4967201;28;20039;-67
2022/07/25 04:13:56;;;;;;;20.95;15.90;;;19.40;99.90;;;;;;4956269;28;20039;-66
2022/07/25 04:16:22;;;;;;;21.00;17.15;;;19.40;99.90;;;;;;4969531;28;20532;-67
2022/07/25 04:18:47;;;;;;;20.13;16.30;;;19.50;99.90;;;;;;4954539;28;20479;-67
2022/07/25 04:21:13;;;;;;;20.27;16.60;;;19.60;99.90;;;;;;4972758;28;20170;-67
2022/07/25 04:23:39;;;;;;;24.15;16.17;;;19.60;99.90;;;;;;4974000;28;20045;-67
2022/07/25 04:26:05;;;;;;;19.88;16.20;;;19.70;99.90;;;;;;4960234;28;20054;-68
2022/07/25 04:28:31;;;;;;;22.83;16.85;;;19.80;99.90;;;;;;4962573;28;20089;-68
2022/07/25 04:30:57;;;;;;;26.98;16.70;;;19.90;99.90;;;;;;4965558;28;20054;-67
2022/07/25 04:33:23;;;;;;;35.10;17.50;;;20.00;99.90;;;;;;4958336;28;20040;-67
2022/07/25 04:35:49;;;;;;;21.85;16.45;;;20.10;99.90;;;;;;4965537;28;20055;-68
2022/07/25 04:38:14;;;;;;;23.35;17.65;;;20.20;99.90;;;;;;4962973;28;20031;-66
2022/07/25 04:40:40;;;;;;;25.27;16.90;;;20.30;99.90;;;;;;4937050;29;20078;-68
2022/07/25 04:43:07;;;;;;;24.45;16.98;;;20.40;99.90;;;;;;4959050;28;20071;-68
2022/07/25 04:45:33;;;;;;;23.02;17.25;;;20.50;99.90;;;;;;4952249;28;20484;-66
2022/07/25 04:47:59;;;;;;;20.50;16.73;;;20.60;99.90;;;;;;4939870;28;20046;-67
2022/07/25 04:50:25;;;;;;;20.77;17.10;;;20.70;99.90;;;;;;4972955;28;20070;-68
2022/07/25 04:52:51;;;;;;;21.65;17.08;;;20.80;99.90;;;;;;4948846;28;20035;-68
2022/07/25 04:55:17;;;;;;;21.52;17.85;;;20.80;99.90;;;;;;4966898;28;20042;-66
2022/07/25 04:57:43;;;;;;;20.75;17.15;;;20.80;99.90;;;;;;4955718;28;20046;-68
2022/07/25 05:00:10;;;;;;;22.23;16.90;;;20.90;99.90;;;;;;4943982;28;20051;-67
2022/07/25 05:02:36;;;;;;;22.67;17.60;;;20.80;99.90;;;;;;4937141;28;20122;-67
2022/07/25 05:05:02;;;;;;;23.73;18.92;;;20.90;99.90;;;;;;4961178;28;20122;-67
2022/07/25 05:07:28;;;;;;;22.92;18.30;;;20.90;99.90;;;;;;4952315;28;20054;-68
2022/07/25 05:09:54;;;;;;;21.90;17.17;;;21.00;99.90;;;;;;4972735;28;20034;-67
2022/07/25 05:12:19;;;;;;;22.08;17.23;;;21.20;99.90;;;;;;4972034;28;20039;-67
2022/07/25 05:14:45;;;;;;;25.80;17.67;;;21.20;99.90;;;;;;4968595;28;20098;-67
2022/07/25 05:17:11;;;;;;;23.77;17.70;;;21.40;99.90;;;;;;4965170;28;20494;-67
2022/07/25 05:19:37;;;;;;;25.48;17.30;;;21.40;99.90;;;;;;4969232;28;20046;-67
2022/07/25 05:22:03;;;;;;;22.30;16.73;;;21.50;99.90;;;;;;4960374;28;20529;-67
2022/07/25 05:24:35;;;;;;;21.13;16.35;;;21.50;99.90;;;;;;4971896;28;20038;-66
2022/07/25 06:08:29;;;;;;;19.95;14.70;;;23.00;99.90;;;;;;6108661;23;20030;-68
2022/07/25 08:43:46;;;;;;;9.73;7.13;;;24.50;99.90;;;;;;6005033;23;20094;-66
2022/07/25 08:56:33;;;;;;;11.45;7.60;;;24.90;99.90;;;;;;6121547;23;20026;-68
2022/07/25 08:58:59;;;;;;;11.57;7.18;;;25.00;99.90;;;;;;4936588;29;20461;-68
2022/07/25 09:19:32;;;;;;;11.20;8.07;;;25.00;99.90;;;;;;5838515;23;20066;-67
2022/07/25 09:22:06;;;;;;;14.23;7.97;;;24.90;99.90;;;;;;4955145;28;20114;-66
2022/07/25 09:24:33;;;;;;;10.88;7.95;;;24.90;99.90;;;;;;4963446;28;20042;-66
2022/07/25 09:52:56;;;;;;;7.03;3.90;;;25.40;99.90;;;;;;5424850;23;20062;-67
2022/07/25 09:55:22;;;;;;;3.30;2.80;;;25.50;99.90;;;;;;4935235;29;20040;-68
2022/07/25 10:34:06;;;;;;;5.20;3.80;;;25.10;99.80;;;;;;5746494;23;20061;-65
2022/07/25 10:44:18;;;;;;;6.82;4.20;;;25.50;99.90;;;;;;5324292;23;20116;-66
2022/07/25 10:46:44;;;;;;;4.68;3.63;;;25.60;99.90;;;;;;4985551;28;20039;-65
2022/07/25 11:02:15;;;;;;;7.40;3.47;;;25.60;99.90;;;;;;5485608;23;20064;-64
2022/07/25 11:04:42;;;;;;;5.80;2.97;;;25.70;99.90;;;;;;4952329;29;20037;-63
2022/07/25 11:07:16;;;;;;;4.40;3.30;;;25.60;99.50;;;;;;4936827;29;20062;-68
2022/07/25 11:09:43;;;;;;;5.18;2.97;;;25.50;99.90;;;;;;4944118;29;20038;-65
2022/07/25 11:14:44;;;;;;;3.90;3.15;;;25.10;99.90;;;;;;5458048;23;20055;-65
2022/07/25 11:17:17;;;;;;;5.40;2.92;;;24.80;99.90;;;;;;4933565;29;20044;-64
2022/07/25 12:03:24;;;;;;;6.32;3.38;;;24.60;99.90;;;;;;5715202;23;20489;-63
2022/07/25 12:05:50;;;;;;;10.57;3.40;;;25.00;99.90;;;;;;4993571;28;20526;-63
2022/07/25 12:08:18;;;;;;;7.90;3.50;;;25.10;99.90;;;;;;4984579;28;20046;-63
2022/07/25 12:10:50;;;;;;;7.18;2.88;;;24.90;99.90;;;;;;4971326;28;20410;-63
2022/07/25 12:13:41;;;;;;;6.78;3.13;;;25.00;99.90;;;;;;5233688;23;20059;-63
2022/07/25 12:16:08;;;;;;;3.88;2.70;;;24.90;99.90;;;;;;4932638;29;20050;-65
2022/07/25 12:18:33;;;;;;;6.30;2.85;;;25.00;99.90;;;;;;4934208;29;20127;-65
2022/07/25 12:20:59;;;;;;;9.20;3.33;;;24.80;99.90;;;;;;4935416;29;20051;-65
2022/07/25 12:23:24;;;;;;;5.53;2.65;;;24.80;99.90;;;;;;4936517;29;20103;-65
2022/07/25 13:00:37;;;;;;;8.23;2.40;;;24.70;99.90;;;;;;5683720;23;20041;-63
2022/07/25 13:31:32;;;;;;;8.90;2.80;;;24.70;99.90;;;;;;5136088;23;20059;-64
2022/07/25 13:46:54;;;;;;;6.63;3.10;;;24.00;99.90;;;;;;5822047;23;20040;-65
2022/07/25 13:49:20;;;;;;;8.35;3.25;;;23.60;99.90;;;;;;4948394;28;20171;-67
2022/07/25 13:51:46;;;;;;;9.20;3.25;;;23.40;99.90;;;;;;4917401;29;20039;-67
2022/07/25 14:20:06;;;;;;;6.65;3.10;;;22.80;99.90;;;;;;5570648;23;20059;-65
2022/07/25 14:22:32;;;;;;;9.65;3.72;;;23.00;99.90;;;;;;4958999;28;20046;-64
2022/07/25 14:30:09;;;;;;;10.80;4.20;;;24.10;99.90;;;;;;5485229;23;20047;-63
2022/07/25 14:32:35;;;;;;;10.95;4.30;;;24.40;99.90;;;;;;4935352;29;20110;-65
2022/07/25 14:35:02;;;;;;;9.95;3.83;;;24.70;99.90;;;;;;4932916;29;20043;-63
2022/07/25 14:37:30;;;;;;;10.57;4.00;;;25.00;99.90;;;;;;4931453;29;20048;-68
2022/07/25 14:39:58;;;;;;;8.10;4.25;;;25.30;99.90;;;;;;4922360;29;20082;-63
2022/07/25 14:42:24;;;;;;;10.77;4.20;;;25.00;99.90;;;;;;4928483;29;20047;-65
2022/07/25 14:47:25;;;;;;;10.30;5.00;;;24.00;99.90;;;;;;5054179;23;20418;-66
2022/07/25 15:08:03;;;;;;;7.68;3.60;;;25.70;98.10;;;;;;5657056;23;20063;-65
2022/07/25 15:10:29;;;;;;;7.75;3.58;;;25.20;97.60;;;;;;4959716;28;20038;-65
2022/07/25 15:12:55;;;;;;;7.43;3.05;;;24.90;96.00;;;;;;4974462;28;20047;-65
2022/07/25 15:15:20;;;;;;;9.00;3.60;;;25.50;95.60;;;;;;4974497;28;20043;-66
2022/07/25 15:17:46;;;;;;;7.68;2.90;;;26.00;95.00;;;;;;4944707;28;20043;-66
2022/07/25 15:30:33;;;;;;;7.03;3.33;;;26.40;90.30;;;;;;5432517;23;20055;-64
2022/07/25 15:32:59;;;;;;;10.98;3.05;;;26.40;90.50;;;;;;4936107;29;20050;-64
2022/07/25 15:35:24;;;;;;;7.10;2.78;;;26.10;89.40;;;;;;4934430;29;20048;-66
2022/07/25 15:55:58;;;;;;;12.80;2.97;;;24.90;92.90;;;;;;5989581;23;20030;-63
2022/07/25 16:11:21;;;;;;;6.18;2.40;;;25.00;94.10;;;;;;5675306;23;20050;-64
2022/07/25 16:13:46;;;;;;;13.02;2.85;;;25.70;93.30;;;;;;5006208;28;20548;-64
2022/07/25 16:16:12;;;;;;;6.07;2.60;;;25.60;92.30;;;;;;5012853;28;20045;-65
2022/07/25 16:18:38;;;;;;;7.63;2.47;;;25.60;92.20;;;;;;5002792;28;20031;-65
2022/07/25 16:21:04;;;;;;;7.43;2.33;;;25.30;91.60;;;;;;4976415;28;20038;-65
2022/07/25 16:23:30;;;;;;;5.78;2.17;;;24.90;91.90;;;;;;4997357;28;20122;-65
2022/07/25 16:25:57;;;;;;;6.68;2.50;;;24.70;92.20;;;;;;4990577;28;20081;-63
2022/07/25 16:28:23;;;;;;;8.38;2.40;;;24.90;92.20;;;;;;5011426;28;20049;-64
2022/07/25 16:30:49;;;;;;;9.75;2.38;;;24.50;92.80;;;;;;5007557;28;20037;-64
2022/07/25 16:33:14;;;;;;;7.10;2.30;;;24.20;93.40;;;;;;4962241;28;20035;-65
2022/07/25 16:51:13;;;;;;;8.30;1.92;;;25.10;92.70;;;;;;6107993;23;20006;-64
2022/07/25 16:53:38;;;;;;;7.07;2.20;;;25.00;92.50;;;;;;4935718;29;20170;-64
2022/07/25 16:56:04;;;;;;;6.47;2.22;;;24.40;93.10;;;;;;4951447;28;20071;-63
2022/07/25 16:58:30;;;;;;;9.23;2.63;;;23.80;93.90;;;;;;4949269;29;20047;-63
2022/07/25 17:00:56;;;;;;;7.15;2.20;;;23.90;94.50;;;;;;4948069;29;20042;-65
2022/07/25 17:03:23;;;;;;;7.28;2.10;;;24.60;94.30;;;;;;4951633;29;20459;-66
2022/07/25 17:05:50;;;;;;;5.68;1.98;;;24.80;93.10;;;;;;4983750;23;20521;-63
2022/07/25 17:08:16;;;;;;;8.15;2.00;;;25.10;92.80;;;;;;4998982;28;20057;-63
2022/07/25 17:10:42;;;;;;;6.13;1.65;;;25.20;91.90;;;;;;4998881;28;20038;-64
2022/07/25 17:13:08;;;;;;;8.48;1.60;;;25.20;91.30;;;;;;4981707;28;20398;-65
2022/07/25 17:15:34;;;;;;;6.00;1.73;;;25.40;91.20;;;;;;5000514;28;20092;-63
2022/07/25 17:17:59;;;;;;;4.63;1.70;;;25.60;90.90;;;;;;4996324;28;20027;-64
2022/07/25 17:20:25;;;;;;;6.78;2.25;;;25.80;90.50;;;;;;4994545;28;20593;-63
2022/07/25 17:22:51;;;;;;;6.60;1.63;;;25.60;90.60;;;;;;5001158;28;20453;-63
2022/07/25 17:25:16;;;;;;;7.18;1.80;;;25.60;90.40;;;;;;5002672;28;20046;-64
2022/07/25 17:27:43;;;;;;;5.40;1.80;;;25.20;90.50;;;;;;4992020;28;20049;-63
2022/07/25 17:30:09;;;;;;;5.25;1.80;;;24.50;91.20;;;;;;4987314;28;20041;-63
2022/07/25 17:32:34;;;;;;;6.95;1.70;;;23.80;91.50;;;;;;4994134;28;20294;-68
2022/07/25 17:35:00;;;;;;;7.18;1.95;;;23.40;92.90;;;;;;4985347;28;20484;-64
2022/07/25 17:37:26;;;;;;;5.70;1.90;;;23.00;93.90;;;;;;5008325;28;20064;-63
2022/07/25 17:39:52;;;;;;;7.30;1.85;;;22.80;94.50;;;;;;4993440;28;20046;-67
2022/07/25 17:42:21;;;;;;;6.85;1.90;;;22.60;94.70;;;;;;4988474;28;20046;-65
2022/07/25 17:44:48;;;;;;;6.43;1.83;;;22.40;95.50;;;;;;4976054;28;20084;-65
2022/07/25 17:47:14;;;;;;;4.65;1.95;;;22.30;96.10;;;;;;4981797;28;20344;-64
2022/07/25 17:49:39;;;;;;;8.40;2.10;;;22.20;96.10;;;;;;4988738;28;20041;-64
2022/07/25 17:52:05;;;;;;;10.82;2.95;;;22.20;96.30;;;;;;4995486;23;20078;-63
2022/07/25 17:54:31;;;;;;;5.80;1.80;;;22.20;96.30;;;;;;4952891;29;20035;-63
2022/07/25 17:56:57;;;;;;;5.63;1.70;;;22.30;96.20;;;;;;4940396;28;20028;-66
2022/07/25 17:59:23;;;;;;;8.07;2.05;;;22.40;96.40;;;;;;4937802;29;20488;-63
2022/07/25 18:01:48;;;;;;;11.10;2.13;;;22.40;96.50;;;;;;4942036;29;20040;-63
2022/07/25 18:06:49;;;;;;;6.05;1.75;;;22.30;96.60;;;;;;5657054;23;20062;-63
2022/07/25 18:09:15;;;;;;;7.15;1.70;;;22.20;97.10;;;;;;4933961;29;20048;-63
2022/07/25 18:11:41;;;;;;;5.95;1.95;;;22.10;96.90;;;;;;4933392;29;20051;-63
2022/07/25 18:14:07;;;;;;;3.85;1.83;;;22.10;97.10;;;;;;4938181;29;20296;-63
2022/07/25 18:16:33;;;;;;;7.20;1.95;;;22.00;97.20;;;;;;4939855;29;20047;-65
2022/07/25 18:18:58;;;;;;;5.60;1.80;;;21.90;97.40;;;;;;4936012;29;20115;-63
2022/07/25 18:21:24;;;;;;;4.68;1.70;;;21.80;97.60;;;;;;4945599;29;20046;-66
2022/07/25 18:23:50;;;;;;;8.27;2.30;;;21.70;97.90;;;;;;4946342;29;20492;-62
2022/07/25 18:26:17;;;;;;;6.60;1.98;;;21.60;98.10;;;;;;4936808;29;20114;-63
2022/07/25 18:28:43;;;;;;;7.90;2.00;;;21.50;98.10;;;;;;4933341;29;20126;-65
2022/07/25 18:31:09;;;;;;;7.22;1.98;;;21.50;98.50;;;;;;4943583;29;20043;-63
2022/07/25 18:33:35;;;;;;;7.65;2.00;;;21.40;98.50;;;;;;4948226;29;20046;-64
2022/07/25 18:36:01;;;;;;;9.90;2.10;;;21.40;98.40;;;;;;4932649;29;20082;-63
2022/07/25 18:38:27;;;;;;;7.35;2.35;;;21.30;98.60;;;;;;4937523;29;20054;-63
2022/07/25 18:40:53;;;;;;;6.25;1.80;;;21.20;98.80;;;;;;4946558;29;20071;-64
2022/07/25 18:43:19;;;;;;;9.35;2.33;;;21.20;99.00;;;;;;4932084;29;20048;-63
2022/07/25 18:45:46;;;;;;;6.88;2.00;;;21.10;99.10;;;;;;4934869;29;20070;-65
2022/07/25 18:48:12;;;;;;;7.80;2.10;;;21.10;99.30;;;;;;4951511;29;20642;-62
2022/07/25 18:50:38;;;;;;;10.75;2.40;;;21.10;99.90;;;;;;4938288;29;20043;-67
2022/07/25 18:53:06;;;;;;;6.78;2.40;;;21.10;99.50;;;;;;4927105;29;20040;-66
2022/07/25 18:55:34;;;;;;;6.93;2.20;;;21.00;99.70;;;;;;4947848;28;20039;-63
2022/07/25 18:57:59;;;;;;;8.43;2.22;;;21.00;99.80;;;;;;4944648;29;20036;-64
2022/07/25 19:00:25;;;;;;;8.57;2.45;;;21.00;99.90;;;;;;4935985;29;20055;-63
2022/07/25 19:02:51;;;;;;;8.43;2.65;;;20.90;99.90;;;;;;4940832;29;20035;-63
2022/07/25 19:05:17;;;;;;;9.43;2.67;;;21.00;99.90;;;;;;4939621;29;20039;-64
2022/07/25 19:07:43;;;;;;;7.28;2.45;;;21.00;99.90;;;;;;4937211;29;20079;-64
2022/07/25 19:10:09;;;;;;;10.43;2.75;;;21.00;99.90;;;;;;4946017;29;20132;-63
2022/07/25 19:12:35;;;;;;;9.52;2.33;;;21.00;99.90;;;;;;4950214;28;20062;-63
2022/07/25 19:15:01;;;;;;;6.82;2.10;;;21.00;99.90;;;;;;4939170;29;20058;-65
2022/07/25 19:17:27;;;;;;;9.73;2.45;;;21.00;99.90;;;;;;4941882;28;20413;-62
2022/07/25 19:19:53;;;;;;;10.20;2.42;;;20.90;99.90;;;;;;4935369;29;20059;-63
2022/07/25 19:22:18;;;;;;;10.13;2.08;;;21.00;99.90;;;;;;4935935;29;20040;-65
2022/07/25 19:24:44;;;;;;;12.27;2.20;;;21.00;99.90;;;;;;4940644;29;20036;-65
2022/07/25 19:27:10;;;;;;;10.82;2.33;;;20.90;99.90;;;;;;4939964;28;20027;-63
2022/07/25 19:29:37;;;;;;;6.93;1.98;;;20.90;99.90;;;;;;4945101;29;20046;-64
2022/07/25 19:34:38;;;;;;;13.30;2.35;;;20.90;99.90;;;;;;5528601;23;20047;-62
2022/07/25 19:37:03;;;;;;;11.73;2.85;;;20.80;99.90;;;;;;4962066;28;20035;-62
2022/07/25 19:39:29;;;;;;;10.27;2.55;;;20.70;99.90;;;;;;4953575;28;20423;-63
2022/07/25 20:05:13;;;;;;;8.93;2.40;;;20.40;99.90;;;;;;5193513;23;20472;-64
2022/07/25 20:07:39;;;;;;;8.73;2.25;;;20.40;99.90;;;;;;4936084;29;20059;-65
2022/07/25 20:10:05;;;;;;;8.57;2.47;;;20.40;99.90;;;;;;4940147;29;20042;-62
2022/07/25 20:15:07;;;;;;;8.68;2.47;;;20.30;99.90;;;;;;5769771;23;20066;-65
2022/07/25 20:17:32;;;;;;;12.98;3.80;;;20.20;99.90;;;;;;4920308;29;20040;-65
2022/07/25 20:19:58;;;;;;;11.05;2.35;;;20.20;99.90;;;;;;4928333;29;20040;-64
2022/07/25 20:22:24;;;;;;;7.53;2.35;;;20.20;99.90;;;;;;4916037;29;20044;-65
2022/07/25 20:32:38;;;;;;;9.23;2.22;;;20.00;99.90;;;;;;5617445;23;20046;-64
2022/07/25 20:35:04;;;;;;;15.45;2.78;;;20.00;99.90;;;;;;4982570;28;20486;-63
2022/07/25 20:37:30;;;;;;;10.70;2.80;;;19.90;99.90;;;;;;4989304;28;20041;-64
2022/07/25 20:39:56;;;;;;;13.10;2.78;;;19.90;99.90;;;;;;4973716;28;20039;-64
2022/07/25 20:42:21;;;;;;;9.32;3.00;;;19.90;99.90;;;;;;5268992;23;20067;-64
2022/07/25 20:44:47;;;;;;;11.18;2.75;;;19.80;99.90;;;;;;4935054;29;20090;-65
2022/07/25 20:47:14;;;;;;;11.95;2.78;;;19.80;99.90;;;;;;4918636;29;20122;-65
2022/07/25 20:52:15;;;;;;;14.02;2.92;;;19.80;99.90;;;;;;5057032;23;20074;-62
2022/07/25 20:54:41;;;;;;;13.88;3.17;;;19.80;99.90;;;;;;4953914;28;20039;-62
2022/07/25 21:10:04;;;;;;;10.40;2.88;;;19.80;99.90;;;;;;5972749;23;20017;-65
2022/07/25 21:12:30;;;;;;;10.63;2.88;;;19.80;99.90;;;;;;4933717;29;20044;-65
2022/07/25 21:14:56;;;;;;;13.32;2.95;;;19.70;99.90;;;;;;4926001;29;20111;-64
2022/07/25 21:17:21;;;;;;;14.13;2.90;;;19.70;99.90;;;;;;4931147;29;20090;-65
2022/07/25 21:19:47;;;;;;;10.93;2.70;;;19.70;99.90;;;;;;4933910;29;20431;-62
2022/07/25 21:22:13;;;;;;;14.55;3.03;;;19.60;99.90;;;;;;4931797;29;20035;-65
2022/07/25 21:24:38;;;;;;;14.38;2.63;;;19.60;99.90;;;;;;5193615;23;20014;-62
2022/07/25 21:27:05;;;;;;;15.18;3.08;;;19.50;99.90;;;;;;4922902;29;20525;-64
2022/07/25 21:32:23;;;;;;;10.10;2.75;;;19.50;99.90;;;;;;5798042;23;20055;-64
2022/07/25 21:37:24;;;;;;;17.17;3.47;;;19.30;99.90;;;;;;5669344;23;20404;-64
2022/07/25 21:39:50;;;;;;;13.73;3.20;;;19.20;99.90;;;;;;4962994;28;20531;-63
2022/07/25 21:42:16;;;;;;;13.73;3.00;;;19.10;99.90;;;;;;4961521;28;20045;-65
2022/07/25 21:44:42;;;;;;;12.32;3.00;;;19.00;99.90;;;;;;4971938;28;20038;-65
2022/07/25 21:47:09;;;;;;;12.93;3.45;;;19.00;99.90;;;;;;4972363;28;20492;-64
2022/07/25 21:52:22;;;;;;;15.50;3.70;;;18.80;99.90;;;;;;5389818;23;20066;-63
2022/07/25 21:54:48;;;;;;;10.13;3.33;;;18.70;99.90;;;;;;4952536;28;20047;-62
2022/07/25 21:57:14;;;;;;;14.48;3.42;;;18.70;99.90;;;;;;4936935;29;20032;-63
2022/07/25 21:59:43;;;;;;;11.57;3.38;;;18.70;99.90;;;;;;5802131;23;20015;-64
2022/07/25 22:02:09;;;;;;;17.90;3.13;;;18.60;99.90;;;;;;4959415;28;20047;-64
2022/07/25 22:04:35;;;;;;;15.55;3.78;;;18.60;99.90;;;;;;4951582;28;20097;-64
2022/07/25 22:09:36;;;;;;;15.68;3.17;;;18.50;99.90;;;;;;5690729;23;20085;-64
2022/07/25 22:19:55;;;;;;;15.18;3.50;;;18.30;99.90;;;;;;5396460;23;20039;-63
2022/07/25 22:22:20;;;;;;;15.60;3.35;;;18.20;99.90;;;;;;4944581;29;20460;-63
2022/07/25 22:24:46;;;;;;;17.48;3.53;;;18.20;99.90;;;;;;4945692;29;20056;-64
2022/07/25 22:27:12;;;;;;;12.00;3.03;;;18.10;99.90;;;;;;4933164;29;20036;-63
2022/07/25 22:29:38;;;;;;;18.08;3.47;;;18.10;99.90;;;;;;4933119;29;20131;-63
2022/07/25 22:32:03;;;;;;;13.38;3.40;;;18.00;99.90;;;;;;4942135;29;20050;-64
2022/07/25 22:34:29;;;;;;;11.20;2.90;;;18.00;99.90;;;;;;5742724;23;20043;-63
2022/07/25 22:39:30;;;;;;;12.93;3.60;;;18.00;99.90;;;;;;5034420;23;20268;-64
2022/07/25 22:44:24;;;;;;;13.60;3.25;;;18.00;99.90;;;;;;4931316;29;20052;-64